Skip Navigation LinksHome page > Weather > Current weather Skip Navigation Links

Current Weather

General Mitchell International, Milwaukee

For information only: do not use for flight planning or navigation.
Latest weather
Observation time Sunday, August 1, 2021 5:52 AM CDT
Local time Sunday, August 1, 2021 6:04 AM CDT
Flight conditions Visual Meteorological Conditions
Winds
Wind direction North-Northwest (340°)
Wind speed 8 mph
Visibility 6 mi.
Present weather haze
Sky condition
Ceiling unlimited
Cloud layer few clouds 1,500 ft.
Temperature 64°F
Dewpoint 61°F
Altimeter 29.98 in.Hg
Derived measurements
Relative humidity 90%
Density altitude 1237 ft.
Sea-level pressure 29.97 in.Hg
Remarks
System requires maintenance.
Automated weather observing station with precipitation discriminator.
METAR KMKE 011052Z 34007KT 6SM HZ FEW015 18/16 A2998 RMK AO2 SLP149 T01780161 $

Settings

Location code

InnerDrive.Weather 4.0.6770.0 Release CLR 4.0.30319.42000
Copyright ©2018 Inner Drive Technology. All rights reserved. Portions Copyright ©1986-2018 David Braverman.

Find weather

Site navigation


Skip Navigation Links

Place info

Page info

PayPal - The safer, easier way to pay online!

Return home.

Copyright ©2021 Inner Drive Technology. Purveyors of fine, hand-crafted computer software. Page printed 2021-08-01T11:04:40 UTC.